Time;durP1;ratioP1;P1;durP2;ratioP2;P2;SDS_P1;SDS_P2;PMS_P1;PMS_P2;Temp;Humidity;BMP_temperature;BMP_pressure;BME280_temperature;BME280_humidity;BME280_pressure;Samples;Min_cycle;Max_cycle;Signal;HPM_P1;HPM_P2
2023/08/13 00:02:30;;;;;;;;;;;;;;;;;;5112563;27;19916;-72
2023/08/13 00:04:56;;;;;;;;;;;;;;;;;;5112021;28;19965;-71
2023/08/13 00:07:23;;;;;;;;;;;;;;;;;;5111278;28;19912;-72
2023/08/13 00:09:49;;;;;;;;;;;;;;;;;;5111649;28;19962;-72
2023/08/13 00:12:15;;;;;;;;;;;;;;;;;;5111542;28;19908;-71
2023/08/13 00:16:29;;;;;;;;;;;;;;;;;;5091463;27;19923;-71
2023/08/13 00:18:55;;;;;;;;;;;;;;;;;;5091411;28;20002;-71
2023/08/13 00:21:21;;;;;;;;;;;;;;;;;;5089640;28;19909;-71
2023/08/13 00:23:47;;;;;;;;;;;;;;;;;;5091404;28;19909;-71
2023/08/13 00:26:13;;;;;;;;;;;;;;;;;;5091227;28;19943;-71
2023/08/13 00:30:47;;;;;;;;;;;;;;;;;;5153129;27;20447;-71
2023/08/13 00:36:01;;;;;;;;;;;;;;;;;;5091772;27;19922;-71
2023/08/13 00:43:42;;;;;;;;;;;;;;;;;;5111853;27;19922;-71
2023/08/13 00:46:31;;;;;;;;;;;;;;;;;;5153023;27;19911;-71
2023/08/13 00:48:57;;;;;;;;;;;;;;;;;;5152501;27;19918;-71
2023/08/13 00:54:01;;;;;;;;;;;;;;;;;;5111908;27;19916;-70
2023/08/13 00:56:27;;;;;;;;;;;;;;;;;;5111308;28;19999;-72
2023/08/13 00:59:51;;;;;;;;;;;;;;;;;;5112342;27;19916;-71
2023/08/13 01:02:17;;;;;;;;;;;;;;;;;;5111419;28;20456;-71
2023/08/13 01:04:43;;;;;;;;;;;;;;;;;;5111701;28;19915;-71
2023/08/13 01:07:09;;;;;;;;;;;;;;;;;;5111631;28;20003;-70
2023/08/13 01:09:35;;;;;;;;;;;;;;;;;;5109933;28;19908;-70
2023/08/13 01:12:01;;;;;;;;;;;;;;;;;;5111632;28;20386;-73
2023/08/13 01:14:27;;;;;;;;;;;;;;;;;;5112129;28;20356;-71
2023/08/13 01:16:53;;;;;;;;;;;;;;;;;;5109787;28;19908;-70
2023/08/13 01:19:19;;;;;;;;;;;;;;;;;;5110058;28;19916;-71
2023/08/13 01:21:45;;;;;;;;;;;;;;;;;;5110136;28;19958;-70
2023/08/13 01:29:48;;;;;;;;;;;;;;;;;;5111862;27;19912;-71
2023/08/13 01:32:44;;;;;;;;;;;;;;;;;;5092054;28;19923;-71
2023/08/13 01:35:10;;;;;;;;;;;;;;;;;;5090143;28;19913;-71
2023/08/13 01:40:08;;;;;;;;;;;;;;;;;;5091728;27;19923;-71
2023/08/13 01:43:32;;;;;;;;;;;;;;;;;;5111944;27;19912;-71
2023/08/13 01:45:57;;;;;;;;;;;;;;;;;;5111314;28;20014;-71
2023/08/13 01:48:23;;;;;;;;;;;;;;;;;;5112160;28;20354;-71
2023/08/13 01:51:52;;;;;;;;;;;;;;;;;;5091450;27;19923;-71
2023/08/13 01:54:58;;;;;;;;;;;;;;;;;;5091764;28;19913;-73
2023/08/13 01:57:24;;;;;;;;;;;;;;;;;;5091391;28;20011;-72
2023/08/13 01:59:50;;;;;;;;;;;;;;;;;;5090986;28;19909;-73
2023/08/13 02:04:10;;;;;;;;;;;;;;;;;;5112188;27;20245;-73
2023/08/13 02:08:30;;;;;;;;;;;;;;;;;;5091714;27;19916;-72
2023/08/13 02:11:56;;;;;;;;;;;;;;;;;;5112182;27;19916;-71
2023/08/13 02:14:22;;;;;;;;;;;;;;;;;;5110517;28;19947;-72
2023/08/13 02:16:48;;;;;;;;;;;;;;;;;;5111734;28;19931;-72
2023/08/13 02:24:13;;;;;;;;;;;;;;;;;;5111964;27;19920;-72
2023/08/13 02:26:39;;;;;;;;;;;;;;;;;;5111605;28;20002;-71
2023/08/13 02:31:16;;;;;;;;;;;;;;;;;;5112159;27;19916;-73
2023/08/13 02:39:47;;;;;;;;;;;;;;;;;;5132682;27;20010;-72
2023/08/13 02:42:12;;;;;;;;;;;;;;;;;;5131850;28;19951;-71
2023/08/13 02:44:38;;;;;;;;;;;;;;;;;;5132438;28;19908;-71
2023/08/13 02:47:04;;;;;;;;;;;;;;;;;;5131817;28;19912;-71
2023/08/13 02:49:30;;;;;;;;;;;;;;;;;;5132112;28;19908;-71
2023/08/13 02:58:31;;;;;;;;;;;;;;;;;;5071499;28;19919;-71
2023/08/13 03:00:57;;;;;;;;;;;;;;;;;;5071269;28;19995;-71
2023/08/13 03:04:02;;;;;;;;;;;;;;;;;;5112555;27;19916;-71
2023/08/13 03:06:28;;;;;;;;;;;;;;;;;;5111854;28;19959;-71
2023/08/13 03:10:07;;;;;;;;;;;;;;;;;;5111504;27;19916;-71
2023/08/13 03:12:33;;;;;;;;;;;;;;;;;;5111733;28;19999;-71
2023/08/13 03:14:59;;;;;;;;;;;;;;;;;;5110446;28;19915;-71
2023/08/13 03:17:25;;;;;;;;;;;;;;;;;;5111263;28;19943;-71
2023/08/13 03:22:58;;;;;;;;;;;;;;;;;;5091169;27;19916;-71
2023/08/13 03:25:24;;;;;;;;;;;;;;;;;;5091452;28;19912;-71
2023/08/13 03:27:50;;;;;;;;;;;;;;;;;;5091346;28;19991;-71
2023/08/13 03:30:16;;;;;;;;;;;;;;;;;;5091010;28;20368;-71
2023/08/13 03:33:26;;;;;;;;;;;;;;;;;;5092055;27;20288;-71
2023/08/13 03:43:05;;;;;;;;;;;;;;;;;;5132546;27;20458;-71
2023/08/13 03:46:09;;;;;;;;;;;;;;;;;;5112243;27;19916;-71
2023/08/13 03:50:05;;;;;;;;;;;;;;;;;;5091586;27;20299;-71
2023/08/13 03:55:17;;;;;;;;;;;;;;;;;;5112162;27;19916;-71
2023/08/13 04:02:32;;;;;;;;;;;;;;;;;;5091989;27;19916;-71
2023/08/13 04:04:58;;;;;;;;;;;;;;;;;;5090972;28;20286;-71
2023/08/13 04:08:25;;;;;;;;;;;;;;;;;;5091481;27;19922;-70
2023/08/13 04:12:18;;;;;;;;;;;;;;;;;;5112020;27;19916;-70
2023/08/13 04:14:44;;;;;;;;;;;;;;;;;;5111882;28;20002;-71
2023/08/13 04:22:56;;;;;;;;;;;;;;;;;;5153010;27;20017;-70
2023/08/13 04:25:22;;;;;;;;;;;;;;;;;;5134386;27;20367;-71
2023/08/13 04:27:48;;;;;;;;;;;;;;;;;;5133964;27;19908;-71
2023/08/13 04:30:14;;;;;;;;;;;;;;;;;;5153116;27;19911;-71
2023/08/13 04:35:18;;;;;;;;;;;;;;;;;;5111835;27;19919;-71
2023/08/13 04:39:03;;;;;;;;;;;;;;;;;;5112540;27;20399;-71
2023/08/13 04:41:29;;;;;;;;;;;;;;;;;;5111339;28;20375;-71
2023/08/13 04:43:55;;;;;;;;;;;;;;;;;;5110383;28;19930;-71
2023/08/13 04:46:21;;;;;;;;;;;;;;;;;;5110317;28;19908;-70
2023/08/13 04:49:20;;;;;;;;;;;;;;;;;;5112167;27;19916;-70
2023/08/13 04:51:46;;;;;;;;;;;;;;;;;;5111706;28;20360;-70
2023/08/13 04:54:12;;;;;;;;;;;;;;;;;;5111261;28;20002;-70
2023/08/13 05:00:20;;;;;;;;;;;;;;;;;;5111977;27;19938;-71
2023/08/13 05:03:37;;;;;;;;;;;;;;;;;;5112354;27;19916;-70
2023/08/13 05:06:03;;;;;;;;;;;;;;;;;;5111698;28;20014;-70
2023/08/13 05:08:29;;;;;;;;;;;;;;;;;;5111381;28;19912;-71
2023/08/13 05:10:55;;;;;;;;;;;;;;;;;;5110464;28;20368;-70
2023/08/13 05:13:21;;;;;;;;;;;;;;;;;;5111598;28;20379;-71
2023/08/13 05:16:36;;;;;;;;;;;;;;;;;;5092092;27;19913;-71
2023/08/13 05:22:03;;;;;;;;;;;;;;;;;;5152866;27;20034;-70
2023/08/13 05:32:33;;;;;;;;;;;;;;;;;;5111763;27;20398;-71
2023/08/13 05:39:20;;;;;;;;;;;;;;;;;;5112498;27;20280;-71
2023/08/13 05:41:46;;;;;;;;;;;;;;;;;;5111680;28;20007;-71
2023/08/13 05:44:52;;;;;;;;;;;;;;;;;;5111414;27;19916;-71
2023/08/13 05:47:18;;;;;;;;;;;;;;;;;;5111726;28;20010;-71
2023/08/13 05:50:08;;;;;;;;;;;;;;;;;;5111575;27;19912;-71
2023/08/13 05:55:54;;;;;;;;;;;;;;;;;;5111924;27;19916;-71
2023/08/13 05:58:20;;;;;;;;;;;;;;;;;;5111250;28;19919;-71
2023/08/13 06:00:46;;;;;;;;;;;;;;;;;;5110254;28;20292;-71
2023/08/13 06:05:00;;;;;;;;;;;;;;;;;;5111597;27;20265;-71
2023/08/13 06:07:26;;;;;;;;;;;;;;;;;;5111880;28;20339;-71
2023/08/13 06:09:52;;;;;;;;;;;;;;;;;;5110395;28;19947;-71
2023/08/13 06:14:19;;;;;;;;;;;;;;;;;;5092231;27;19923;-72
2023/08/13 06:18:17;;;;;;;;;;;;;;;;;;5091893;27;19922;-72
2023/08/13 06:20:43;;;;;;;;;;;;;;;;;;5091369;28;19973;-73
2023/08/13 06:23:08;;;;;;;;;;;;;;;;;;5091294;28;19912;-71
2023/08/13 06:25:34;;;;;;;;;;;;;;;;;;5091192;28;20403;-71
2023/08/13 06:28:01;;;;;;;;;;;;;;;;;;5091154;28;20379;-72
2023/08/13 06:31:55;;;;;;;;;;;;;;;;;;5153139;27;19922;-72
2023/08/13 06:34:20;;;;;;;;;;;;;;;;;;5152486;27;19957;-72
2023/08/13 06:39:18;;;;;;;;;;;;;;;;;;5111654;27;19916;-72
2023/08/13 06:41:44;;;;;;;;;;;;;;;;;;5111809;28;20320;-72
2023/08/13 06:47:17;;;;;;;;;;;;;;;;;;5091297;28;19923;-72
2023/08/13 06:49:43;;;;;;;;;;;;;;;;;;5091337;28;19951;-72
2023/08/13 06:52:09;;;;;;;;;;;;;;;;;;5091304;28;19908;-73
2023/08/13 06:54:34;;;;;;;;;;;;;;;;;;5090923;28;19908;-71
2023/08/13 07:04:49;;;;;;;;;;;;;;;;;;5091860;27;19923;-73
2023/08/13 07:07:15;;;;;;;;;;;;;;;;;;5089782;28;20003;-73
2023/08/13 07:12:08;;;;;;;;;;;;;;;;;;5112558;27;19918;-72
2023/08/13 07:18:52;;;;;;;;;;;;;;;;;;5071972;28;20272;-73
2023/08/13 07:21:18;;;;;;;;;;;;;;;;;;5071366;28;20007;-73
2023/08/13 07:23:44;;;;;;;;;;;;;;;;;;5071082;28;20262;-71
2023/08/13 07:26:10;;;;;;;;;;;;;;;;;;5071097;28;20288;-72
2023/08/13 07:28:38;;;;;;;;;;;;;;;;;;5070859;28;20349;-72
2023/08/13 07:31:04;;;;;;;;;;;;;;;;;;5071039;28;19920;-74
2023/08/13 07:35:35;;;;;;;;;;;;;;;;;;5091296;27;19916;-72
2023/08/13 07:39:02;;;;;;;;;;;;;;;;;;5092784;27;19912;-74
2023/08/13 07:41:28;;;;;;;;;;;;;;;;;;5091611;28;20004;-73
2023/08/13 07:43:54;;;;;;;;;;;;;;;;;;5091418;28;19944;-72
2023/08/13 07:46:20;;;;;;;;;;;;;;;;;;5090405;28;19940;-74
2023/08/13 07:48:47;;;;;;;;;;;;;;;;;;5091775;28;19915;-72
2023/08/13 07:51:13;;;;;;;;;;;;;;;;;;5090885;28;19959;-73
2023/08/13 07:55:49;;;;;;;;;;;;;;;;;;5091826;27;19916;-72
2023/08/13 07:58:15;;;;;;;;;;;;;;;;;;5090023;28;19999;-72
2023/08/13 08:02:26;;;;;;;;;;;;;;;;;;5112033;27;19934;-73
2023/08/13 08:06:26;;;;;;;;;;;;;;;;;;5112635;27;19916;-73
2023/08/13 08:08:52;;;;;;;;;;;;;;;;;;5111764;28;20006;-72
2023/08/13 08:11:28;;;;;;;;;;;;;;;;;;5111575;27;19922;-71
2023/08/13 08:13:54;;;;;;;;;;;;;;;;;;5110443;28;20006;-72
2023/08/13 08:16:20;;;;;;;;;;;;;;;;;;5111630;28;20360;-73
2023/08/13 08:18:46;;;;;;;;;;;;;;;;;;5111312;28;19908;-74
2023/08/13 08:21:12;;;;;;;;;;;;;;;;;;5111589;28;19908;-72
2023/08/13 08:24:24;;;;;;;;;;;;;;;;;;5112675;27;19923;-72
2023/08/13 08:26:50;;;;;;;;;;;;;;;;;;5111426;28;20006;-73
2023/08/13 08:29:16;;;;;;;;;;;;;;;;;;5111642;28;19908;-73
2023/08/13 08:31:42;;;;;;;;;;;;;;;;;;5111227;28;19943;-73
2023/08/13 08:34:08;;;;;;;;;;;;;;;;;;5111617;28;20287;-73
2023/08/13 08:36:34;;;;;;;;;;;;;;;;;;5111604;28;20385;-73
2023/08/13 08:39:00;;;;;;;;;;;;;;;;;;5110042;28;19935;-72
2023/08/13 08:41:26;;;;;;;;;;;;;;;;;;5110183;28;20014;-73
2023/08/13 08:43:52;;;;;;;;;;;;;;;;;;5111567;28;19923;-72
2023/08/13 08:46:18;;;;;;;;;;;;;;;;;;5109783;28;19908;-72
2023/08/13 08:48:44;;;;;;;;;;;;;;;;;;5111744;28;20061;-72
2023/08/13 08:51:10;;;;;;;;;;;;;;;;;;5111294;28;19965;-72
2023/08/13 08:53:36;;;;;;;;;;;;;;;;;;5110922;28;19908;-72
2023/08/13 08:56:02;;;;;;;;;;;;;;;;;;5111216;28;19915;-73
2023/08/13 08:58:28;;;;;;;;;;;;;;;;;;5111202;28;19911;-72
2023/08/13 09:01:00;;;;;;;;;;;;;;;;;;5110948;28;19914;-72
2023/08/13 09:03:26;;;;;;;;;;;;;;;;;;5111352;28;19962;-73
2023/08/13 09:05:52;;;;;;;;;;;;;;;;;;5111037;28;19915;-73
2023/08/13 09:08:19;;;;;;;;;;;;;;;;;;5109396;28;19908;-74
2023/08/13 09:10:45;;;;;;;;;;;;;;;;;;5110991;28;19962;-73
2023/08/13 09:13:11;;;;;;;;;;;;;;;;;;5110868;28;20288;-73
2023/08/13 09:15:37;;;;;;;;;;;;;;;;;;5109129;28;19908;-73
2023/08/13 09:18:02;;;;;;;;;;;;;;;;;;5109456;28;19915;-73
2023/08/13 09:20:28;;;;;;;;;;;;;;;;;;5110779;28;20373;-72
2023/08/13 09:22:54;;;;;;;;;;;;;;;;;;5110186;28;20288;-72
2023/08/13 09:25:20;;;;;;;;;;;;;;;;;;5110674;28;19988;-74
2023/08/13 09:27:46;;;;;;;;;;;;;;;;;;5110920;28;19908;-73
2023/08/13 09:30:12;;;;;;;;;;;;;;;;;;5110120;28;20011;-72
2023/08/13 09:32:38;;;;;;;;;;;;;;;;;;5110595;28;19912;-72
2023/08/13 09:35:04;;;;;;;;;;;;;;;;;;5100181;28;19912;-72
2023/08/13 09:37:30;;;;;;;;;;;;;;;;;;5095566;28;19912;-73
2023/08/13 09:39:56;;;;;;;;;;;;;;;;;;5097300;28;19930;-73
2023/08/13 09:42:23;;;;;;;;;;;;;;;;;;5096195;28;19916;-73
2023/08/13 09:44:49;;;;;;;;;;;;;;;;;;5096920;28;20286;-72
2023/08/13 09:47:17;;;;;;;;;;;;;;;;;;5096631;28;19955;-73
2023/08/13 09:49:43;;;;;;;;;;;;;;;;;;5096304;28;20347;-74
2023/08/13 09:52:09;;;;;;;;;;;;;;;;;;5096756;28;19943;-73
2023/08/13 09:54:35;;;;;;;;;;;;;;;;;;5097099;28;20437;-74
2023/08/13 09:57:02;;;;;;;;;;;;;;;;;;5095988;28;19912;-72
2023/08/13 09:59:27;;;;;;;;;;;;;;;;;;5095217;28;19954;-72
2023/08/13 10:01:54;;;;;;;;;;;;;;;;;;5096476;28;19909;-72
2023/08/13 10:04:20;;;;;;;;;;;;;;;;;;5096167;28;19916;-73
2023/08/13 10:06:47;;;;;;;;;;;;;;;;;;5096297;28;20009;-71
2023/08/13 10:09:13;;;;;;;;;;;;;;;;;;5096335;28;19908;-73
2023/08/13 10:11:38;;;;;;;;;;;;;;;;;;5095810;28;19908;-72
2023/08/13 10:14:04;;;;;;;;;;;;;;;;;;5096763;28;19919;-73
2023/08/13 10:16:30;;;;;;;;;;;;;;;;;;5095386;28;19908;-73
2023/08/13 10:18:56;;;;;;;;;;;;;;;;;;5096281;28;19908;-72
2023/08/13 10:21:22;;;;;;;;;;;;;;;;;;5096449;28;19944;-73
2023/08/13 10:23:48;;;;;;;;;;;;;;;;;;5097681;28;19934;-73
2023/08/13 10:26:14;;;;;;;;;;;;;;;;;;5095749;28;20435;-73
2023/08/13 10:28:40;;;;;;;;;;;;;;;;;;5095903;28;20276;-73
2023/08/13 10:31:06;;;;;;;;;;;;;;;;;;5094696;28;19908;-73
2023/08/13 10:33:32;;;;;;;;;;;;;;;;;;5095579;28;20030;-73
2023/08/13 10:35:58;;;;;;;;;;;;;;;;;;5096113;28;19954;-73
2023/08/13 10:38:24;;;;;;;;;;;;;;;;;;5095240;28;19965;-73
2023/08/13 10:40:50;;;;;;;;;;;;;;;;;;5095565;28;20357;-73
2023/08/13 10:43:16;;;;;;;;;;;;;;;;;;5095601;28;20395;-74
2023/08/13 10:45:42;;;;;;;;;;;;;;;;;;5095075;28;19908;-73
2023/08/13 10:48:08;;;;;;;;;;;;;;;;;;5094128;28;20376;-72
2023/08/13 10:50:34;;;;;;;;;;;;;;;;;;5094198;28;20367;-72
2023/08/13 10:53:00;;;;;;;;;;;;;;;;;;5095035;28;20287;-72
2023/08/13 10:55:26;;;;;;;;;;;;;;;;;;5095511;28;20280;-72
2023/08/13 10:57:52;;;;;;;;;;;;;;;;;;5095891;28;19915;-72
2023/08/13 11:00:18;;;;;;;;;;;;;;;;;;5095851;28;19912;-72
2023/08/13 11:02:44;;;;;;;;;;;;;;;;;;5096259;28;20396;-72
2023/08/13 11:05:10;;;;;;;;;;;;;;;;;;5094754;28;20386;-72
2023/08/13 11:07:36;;;;;;;;;;;;;;;;;;5093884;28;19909;-73
2023/08/13 11:10:02;;;;;;;;;;;;;;;;;;5095879;28;19950;-73
2023/08/13 11:12:28;;;;;;;;;;;;;;;;;;5095201;28;19999;-72
2023/08/13 11:14:54;;;;;;;;;;;;;;;;;;5095350;28;20347;-72
2023/08/13 11:17:20;;;;;;;;;;;;;;;;;;5094228;28;19908;-74
2023/08/13 11:19:46;;;;;;;;;;;;;;;;;;5095881;28;19908;-73
2023/08/13 11:22:12;;;;;;;;;;;;;;;;;;5095082;28;19919;-72
2023/08/13 11:24:38;;;;;;;;;;;;;;;;;;5096236;28;19908;-73
2023/08/13 11:27:04;;;;;;;;;;;;;;;;;;5095497;28;19915;-72
2023/08/13 11:29:30;;;;;;;;;;;;;;;;;;5095584;28;20271;-72
2023/08/13 11:31:56;;;;;;;;;;;;;;;;;;5096257;28;20383;-73
2023/08/13 11:34:22;;;;;;;;;;;;;;;;;;5093800;28;19909;-73
2023/08/13 11:36:52;;;;;;;;;;;;;;;;;;5094607;28;19916;-72
2023/08/13 11:39:18;;;;;;;;;;;;;;;;;;5094875;28;20384;-73
2023/08/13 11:41:45;;;;;;;;;;;;;;;;;;5094428;28;19912;-71
2023/08/13 11:44:11;;;;;;;;;;;;;;;;;;5095290;28;19923;-72
2023/08/13 11:46:37;;;;;;;;;;;;;;;;;;5094625;28;19908;-72
2023/08/13 11:49:03;;;;;;;;;;;;;;;;;;5094047;28;19908;-72
2023/08/13 11:51:28;;;;;;;;;;;;;;;;;;5094458;28;20077;-72
2023/08/13 11:53:54;;;;;;;;;;;;;;;;;;5094408;28;19912;-72
2023/08/13 11:56:20;;;;;;;;;;;;;;;;;;5093990;28;19908;-72
2023/08/13 11:58:46;;;;;;;;;;;;;;;;;;5092990;28;19912;-71
2023/08/13 12:01:12;;;;;;;;;;;;;;;;;;5094347;28;20321;-72
2023/08/13 12:03:38;;;;;;;;;;;;;;;;;;5094042;28;20010;-72
2023/08/13 12:06:04;;;;;;;;;;;;;;;;;;5094367;28;19912;-73
2023/08/13 12:08:30;;;;;;;;;;;;;;;;;;5094317;28;19922;-72
2023/08/13 12:10:57;;;;;;;;;;;;;;;;;;5093877;28;19908;-73
2023/08/13 12:13:22;;;;;;;;;;;;;;;;;;5094192;28;19908;-73
2023/08/13 12:15:48;;;;;;;;;;;;;;;;;;5093954;28;20330;-73
2023/08/13 12:18:14;;;;;;;;;;;;;;;;;;5093617;28;19912;-72
2023/08/13 12:20:40;;;;;;;;;;;;;;;;;;5092855;28;19962;-73
2023/08/13 12:23:06;;;;;;;;;;;;;;;;;;5093813;28;19927;-72
2023/08/13 12:25:32;;;;;;;;;;;;;;;;;;5093676;28;19908;-73
2023/08/13 12:27:58;;;;;;;;;;;;;;;;;;5093937;28;19916;-73
2023/08/13 12:30:24;;;;;;;;;;;;;;;;;;5094038;28;19912;-73
2023/08/13 12:32:50;;;;;;;;;;;;;;;;;;5093498;28;20325;-73
2023/08/13 12:35:16;;;;;;;;;;;;;;;;;;5094031;28;19913;-73
2023/08/13 12:37:42;;;;;;;;;;;;;;;;;;5094180;28;20008;-72
2023/08/13 12:40:11;;;;;;;;;;;;;;;;;;5093599;28;20291;-72
2023/08/13 12:42:37;;;;;;;;;;;;;;;;;;5093759;28;19969;-72
2023/08/13 12:45:06;;;;;;;;;;;;;;;;;;5093412;28;19912;-72
2023/08/13 12:47:32;;;;;;;;;;;;;;;;;;5093907;28;19923;-72
2023/08/13 12:49:58;;;;;;;;;;;;;;;;;;5093614;28;20274;-72
2023/08/13 12:52:24;;;;;;;;;;;;;;;;;;5096164;28;19999;-72
2023/08/13 12:54:50;;;;;;;;;;;;;;;;;;5093752;28;19908;-71
2023/08/13 12:57:16;;;;;;;;;;;;;;;;;;5093624;28;19962;-72
2023/08/13 12:59:42;;;;;;;;;;;;;;;;;;5092001;28;19908;-72
2023/08/13 13:02:08;;;;;;;;;;;;;;;;;;5094243;28;19908;-73
2023/08/13 13:04:34;;;;;;;;;;;;;;;;;;5092919;28;19908;-73
2023/08/13 13:07:00;;;;;;;;;;;;;;;;;;5093102;28;20283;-73
2023/08/13 13:09:26;;;;;;;;;;;;;;;;;;5093215;28;20283;-73
2023/08/13 13:11:52;;;;;;;;;;;;;;;;;;5097425;28;19912;-73
2023/08/13 13:14:18;;;;;;;;;;;;;;;;;;5095742;28;19912;-72
2023/08/13 13:16:43;;;;;;;;;;;;;;;;;;5097591;28;19910;-73
2023/08/13 13:19:09;;;;;;;;;;;;;;;;;;5097237;28;19915;-73
2023/08/13 13:21:35;;;;;;;;;;;;;;;;;;5097141;28;19950;-73
2023/08/13 13:24:01;;;;;;;;;;;;;;;;;;5097139;28;20319;-74
2023/08/13 13:26:27;;;;;;;;;;;;;;;;;;5097126;28;19909;-73
2023/08/13 13:28:53;;;;;;;;;;;;;;;;;;5096769;28;20364;-74
2023/08/13 13:31:19;;;;;;;;;;;;;;;;;;5097158;28;20284;-74
2023/08/13 13:33:45;;;;;;;;;;;;;;;;;;5097100;28;20257;-73
2023/08/13 13:36:11;;;;;;;;;;;;;;;;;;5095521;28;20327;-73
2023/08/13 13:38:37;;;;;;;;;;;;;;;;;;5096821;28;19915;-73
2023/08/13 13:41:03;;;;;;;;;;;;;;;;;;5096907;28;19968;-73
2023/08/13 13:43:29;;;;;;;;;;;;;;;;;;5096332;28;19916;-74
2023/08/13 13:45:55;;;;;;;;;;;;;;;;;;5096814;28;20486;-72
2023/08/13 13:48:21;;;;;;;;;;;;;;;;;;5095093;28;20371;-73
2023/08/13 13:50:47;;;;;;;;;;;;;;;;;;5096976;28;20283;-74
2023/08/13 13:53:13;;;;;;;;;;;;;;;;;;5096625;28;20259;-73
2023/08/13 13:55:39;;;;;;;;;;;;;;;;;;5096241;28;19908;-73
2023/08/13 13:58:05;;;;;;;;;;;;;;;;;;5096419;28;19918;-73
2023/08/13 14:00:31;;;;;;;;;;;;;;;;;;5096453;28;19912;-73
2023/08/13 14:02:58;;;;;;;;;;;;;;;;;;5094556;28;19918;-73
2023/08/13 14:05:24;;;;;;;;;;;;;;;;;;5096313;28;19909;-72
2023/08/13 14:07:50;;;;;;;;;;;;;;;;;;5094956;28;19961;-72
2023/08/13 14:10:16;;;;;;;;;;;;;;;;;;5094602;28;19955;-73
2023/08/13 14:12:42;;;;;;;;;;;;;;;;;;5094890;28;19955;-72
2023/08/13 14:15:08;;;;;;;;;;;;;;;;;;5096157;28;19915;-73
2023/08/13 14:17:34;;;;;;;;;;;;;;;;;;5095610;28;19908;-73
2023/08/13 14:20:00;;;;;;;;;;;;;;;;;;5094640;28;19990;-73
2023/08/13 14:22:26;;;;;;;;;;;;;;;;;;5095754;28;19912;-72
2023/08/13 14:24:52;;;;;;;;;;;;;;;;;;5095641;28;19915;-72
2023/08/13 14:27:17;;;;;;;;;;;;;;;;;;5096242;28;19936;-73
2023/08/13 14:29:43;;;;;;;;;;;;;;;;;;5095984;28;20387;-73
2023/08/13 14:32:09;;;;;;;;;;;;;;;;;;5095490;28;20380;-72
2023/08/13 14:34:35;;;;;;;;;;;;;;;;;;5096038;28;20363;-72
2023/08/13 14:37:01;;;;;;;;;;;;;;;;;;5095951;28;19954;-73
2023/08/13 14:39:27;;;;;;;;;;;;;;;;;;5095419;28;19908;-73
2023/08/13 14:41:53;;;;;;;;;;;;;;;;;;5095618;28;19908;-73
2023/08/13 14:44:19;;;;;;;;;;;;;;;;;;5095549;28;19923;-73
2023/08/13 14:46:45;;;;;;;;;;;;;;;;;;5095201;28;19908;-73
2023/08/13 14:49:11;;;;;;;;;;;;;;;;;;5095510;28;19912;-72
2023/08/13 14:51:37;;;;;;;;;;;;;;;;;;5095113;28;19953;-73
2023/08/13 14:54:03;;;;;;;;;;;;;;;;;;5095340;28;19934;-73
2023/08/13 14:56:29;;;;;;;;;;;;;;;;;;5094063;28;19908;-74
2023/08/13 14:58:55;;;;;;;;;;;;;;;;;;5093499;28;19957;-73
2023/08/13 15:01:21;;;;;;;;;;;;;;;;;;5095227;28;19975;-73
2023/08/13 15:03:47;;;;;;;;;;;;;;;;;;5093886;28;19920;-72
2023/08/13 15:06:13;;;;;;;;;;;;;;;;;;5095106;28;20357;-74
2023/08/13 15:08:39;;;;;;;;;;;;;;;;;;5095834;28;19915;-73
2023/08/13 15:11:05;;;;;;;;;;;;;;;;;;5095759;28;19912;-73
2023/08/13 15:13:31;;;;;;;;;;;;;;;;;;5094659;28;19952;-72
2023/08/13 15:15:57;;;;;;;;;;;;;;;;;;5095015;28;19915;-73
2023/08/13 15:18:22;;;;;;;;;;;;;;;;;;5095044;28;20335;-74
2023/08/13 15:20:48;;;;;;;;;;;;;;;;;;5094941;28;19931;-72
2023/08/13 15:23:14;;;;;;;;;;;;;;;;;;5094828;28;20016;-72
2023/08/13 15:25:41;;;;;;;;;;;;;;;;;;5095216;28;19914;-72
2023/08/13 15:28:07;;;;;;;;;;;;;;;;;;5094453;28;20286;-74
2023/08/13 15:30:33;;;;;;;;;;;;;;;;;;5094957;28;19914;-73
2023/08/13 15:32:59;;;;;;;;;;;;;;;;;;5094484;28;19908;-73
2023/08/13 15:35:25;;;;;;;;;;;;;;;;;;5092960;28;20027;-72
2023/08/13 15:37:51;;;;;;;;;;;;;;;;;;5093336;28;19908;-71
2023/08/13 15:40:17;;;;;;;;;;;;;;;;;;5093293;28;19908;-73
2023/08/13 15:42:43;;;;;;;;;;;;;;;;;;5093962;28;20412;-73
2023/08/13 15:45:09;;;;;;;;;;;;;;;;;;5094462;28;20430;-73
2023/08/13 15:47:35;;;;;;;;;;;;;;;;;;5094430;28;19912;-72
2023/08/13 15:50:01;;;;;;;;;;;;;;;;;;5093050;28;19915;-72
2023/08/13 15:52:27;;;;;;;;;;;;;;;;;;5094305;28;19960;-72
2023/08/13 15:54:53;;;;;;;;;;;;;;;;;;5093891;28;19908;-72
2023/08/13 15:57:20;;;;;;;;;;;;;;;;;;5094229;28;20100;-71
2023/08/13 15:59:45;;;;;;;;;;;;;;;;;;5094306;28;19908;-73
2023/08/13 16:02:11;;;;;;;;;;;;;;;;;;5093890;28;20284;-73
2023/08/13 16:04:37;;;;;;;;;;;;;;;;;;5094185;28;20328;-72
2023/08/13 16:07:03;;;;;;;;;;;;;;;;;;5094128;28;19908;-74
2023/08/13 16:09:29;;;;;;;;;;;;;;;;;;5093722;28;19996;-74
2023/08/13 16:11:55;;;;;;;;;;;;;;;;;;5094077;28;19944;-73
2023/08/13 16:14:21;;;;;;;;;;;;;;;;;;5094105;28;19909;-73
2023/08/13 16:16:47;;;;;;;;;;;;;;;;;;5093633;28;19915;-73
2023/08/13 16:19:13;;;;;;;;;;;;;;;;;;5094040;28;19954;-73
2023/08/13 16:21:39;;;;;;;;;;;;;;;;;;5094009;28;20334;-73
2023/08/13 16:24:05;;;;;;;;;;;;;;;;;;5093419;28;20376;-73
2023/08/13 16:26:31;;;;;;;;;;;;;;;;;;5092667;28;20373;-74
2023/08/13 16:28:57;;;;;;;;;;;;;;;;;;5099002;28;19979;-73
2023/08/13 16:31:23;;;;;;;;;;;;;;;;;;5093771;28;19909;-73
2023/08/13 16:33:50;;;;;;;;;;;;;;;;;;5093893;28;19931;-73
2023/08/13 16:36:16;;;;;;;;;;;;;;;;;;5094503;28;19908;-73
2023/08/13 16:38:43;;;;;;;;;;;;;;;;;;5093144;28;19908;-73
2023/08/13 16:41:09;;;;;;;;;;;;;;;;;;5094218;28;20375;-73
2023/08/13 16:43:37;;;;;;;;;;;;;;;;;;5093815;28;19959;-73
2023/08/13 16:46:03;;;;;;;;;;;;;;;;;;5097257;28;20004;-73
2023/08/13 16:48:29;;;;;;;;;;;;;;;;;;5098217;28;20311;-72
2023/08/13 16:50:55;;;;;;;;;;;;;;;;;;5098036;28;19918;-73
2023/08/13 16:53:20;;;;;;;;;;;;;;;;;;5097374;28;19908;-72
2023/08/13 16:55:46;;;;;;;;;;;;;;;;;;5098133;28;19915;-72
2023/08/13 16:58:12;;;;;;;;;;;;;;;;;;5102549;28;19915;-72
2023/08/13 17:00:39;;;;;;;;;;;;;;;;;;5098202;28;19908;-72
2023/08/13 17:03:05;;;;;;;;;;;;;;;;;;5098600;28;19916;-72
2023/08/13 17:05:31;;;;;;;;;;;;;;;;;;5097400;28;19915;-72
2023/08/13 17:07:57;;;;;;;;;;;;;;;;;;5097822;28;20279;-72
2023/08/13 17:11:58;;;;;;;;;;;;;;;;;;5112412;27;19938;-72
2023/08/13 17:14:24;;;;;;;;;;;;;;;;;;5111379;28;20444;-71
2023/08/13 17:16:50;;;;;;;;;;;;;;;;;;5111799;28;19914;-72
2023/08/13 17:19:16;;;;;;;;;;;;;;;;;;5111229;28;19908;-71
2023/08/13 17:21:42;;;;;;;;;;;;;;;;;;5111524;28;19912;-72
2023/08/13 17:24:08;;;;;;;;;;;;;;;;;;5111794;28;20007;-72
2023/08/13 17:26:34;;;;;;;;;;;;;;;;;;5111288;28;19915;-72
2023/08/13 17:29:03;;;;;;;;;;;;;;;;;;5111760;28;19908;-72
2023/08/13 17:31:29;;;;;;;;;;;;;;;;;;5111525;28;19959;-72
2023/08/13 17:33:55;;;;;;;;;;;;;;;;;;5110027;28;20288;-73
2023/08/13 17:36:21;;;;;;;;;;;;;;;;;;5111846;28;19908;-72
2023/08/13 17:38:47;;;;;;;;;;;;;;;;;;5109960;28;19915;-72
2023/08/13 17:41:13;;;;;;;;;;;;;;;;;;5110872;28;19908;-72
2023/08/13 17:43:39;;;;;;;;;;;;;;;;;;5111153;28;19935;-72
2023/08/13 17:46:05;;;;;;;;;;;;;;;;;;5111057;28;19923;-72
2023/08/13 17:48:31;;;;;;;;;;;;;;;;;;5110697;28;19908;-72
2023/08/13 17:50:57;;;;;;;;;;;;;;;;;;5110910;28;20361;-72
2023/08/13 17:53:23;;;;;;;;;;;;;;;;;;5110882;28;20369;-72
2023/08/13 17:55:49;;;;;;;;;;;;;;;;;;5110532;28;20386;-72
2023/08/13 17:58:15;;;;;;;;;;;;;;;;;;5110923;28;19908;-72
2023/08/13 18:00:41;;;;;;;;;;;;;;;;;;5110803;28;19907;-72
2023/08/13 18:03:06;;;;;;;;;;;;;;;;;;5110420;28;19909;-72
2023/08/13 18:05:32;;;;;;;;;;;;;;;;;;5111401;28;19908;-72
2023/08/13 18:07:58;;;;;;;;;;;;;;;;;;5110935;28;20361;-72
2023/08/13 18:10:24;;;;;;;;;;;;;;;;;;5109996;28;20288;-72
2023/08/13 18:12:50;;;;;;;;;;;;;;;;;;5110659;28;20383;-72
2023/08/13 18:15:16;;;;;;;;;;;;;;;;;;5110604;28;19931;-72
2023/08/13 18:17:45;;;;;;;;;;;;;;;;;;5110073;28;19914;-72
2023/08/13 18:20:11;;;;;;;;;;;;;;;;;;5110490;28;19908;-72
2023/08/13 18:22:37;;;;;;;;;;;;;;;;;;5099143;28;19909;-72
2023/08/13 18:25:02;;;;;;;;;;;;;;;;;;5095501;28;20284;-71
2023/08/13 18:27:28;;;;;;;;;;;;;;;;;;5096944;28;19958;-73
2023/08/13 18:29:54;;;;;;;;;;;;;;;;;;5096504;28;19912;-71
2023/08/13 18:32:20;;;;;;;;;;;;;;;;;;5096682;28;19913;-72
2023/08/13 18:34:46;;;;;;;;;;;;;;;;;;5096642;28;19908;-72
2023/08/13 18:37:12;;;;;;;;;;;;;;;;;;5096286;28;20413;-72
2023/08/13 18:41:01;;;;;;;;;;;;;;;;;;5112532;27;19919;-71
2023/08/13 18:43:27;;;;;;;;;;;;;;;;;;5111711;28;20256;-71
2023/08/13 18:45:53;;;;;;;;;;;;;;;;;;5111258;28;19908;-71
2023/08/13 18:48:45;;;;;;;;;;;;;;;;;;5112170;27;20299;-71
2023/08/13 18:51:11;;;;;;;;;;;;;;;;;;5111370;28;19995;-72
2023/08/13 18:55:04;;;;;;;;;;;;;;;;;;5112043;27;19912;-71
2023/08/13 18:57:30;;;;;;;;;;;;;;;;;;5110546;28;20336;-72
2023/08/13 18:59:56;;;;;;;;;;;;;;;;;;5111284;28;20391;-71
2023/08/13 19:02:22;;;;;;;;;;;;;;;;;;5111712;28;20322;-72
2023/08/13 19:04:48;;;;;;;;;;;;;;;;;;5111302;28;20006;-71
2023/08/13 19:07:36;;;;;;;;;;;;;;;;;;5174724;27;19915;-71
2023/08/13 19:10:03;;;;;;;;;;;;;;;;;;5173976;27;19911;-71
2023/08/13 19:13:46;;;;;;;;;;;;;;;;;;5152620;27;20458;-71